Time;durP1;ratioP1;P1;durP2;ratioP2;P2;SDS_P1;SDS_P2;PMS_P1;PMS_P2;Temp;Humidity;BMP_temperature;BMP_pressure;BME280_temperature;BME280_humidity;BME280_pressure;Samples;Min_cycle;Max_cycle;Signal;HPM_P1;HPM_P2
2022/12/10 00:01:52;;;;;;;52.00;23.73;;;2.50;99.90;;;;;;5015940;28;20196;-74
2022/12/10 00:04:19;;;;;;;52.47;21.47;;;2.50;99.90;;;;;;5015986;28;20231;-74
2022/12/10 00:06:45;;;;;;;53.83;22.73;;;2.40;99.90;;;;;;5016015;28;20200;-73
2022/12/10 00:09:14;;;;;;;48.97;21.23;;;2.30;99.90;;;;;;5015590;28;20571;-73
2022/12/10 00:11:40;;;;;;;52.93;22.00;;;2.00;99.90;;;;;;5015985;28;20683;-74
2022/12/10 00:14:07;;;;;;;51.90;21.90;;;1.80;99.90;;;;;;5015807;28;20177;-75
2022/12/10 00:16:33;;;;;;;48.20;21.57;;;1.80;99.90;;;;;;5015322;28;20696;-74
2022/12/10 00:18:59;;;;;;;52.03;21.40;;;1.70;99.90;;;;;;5015786;28;20534;-74
2022/12/10 00:21:34;;;;;;;48.63;21.23;;;1.80;99.90;;;;;;5014347;28;20247;-74
2022/12/10 00:24:00;;;;;;;51.27;21.83;;;1.70;99.90;;;;;;5013984;28;20175;-74
2022/12/10 00:26:32;;;;;;;44.17;19.73;;;1.80;99.90;;;;;;5015608;28;20270;-72
2022/12/10 00:29:00;;;;;;;45.37;20.60;;;1.70;99.90;;;;;;5015364;28;20574;-73
2022/12/10 00:31:28;;;;;;;47.27;22.73;;;1.80;99.90;;;;;;5014294;28;20520;-73
2022/12/10 00:33:56;;;;;;;49.07;21.50;;;1.80;99.90;;;;;;5013420;28;20193;-73
2022/12/10 00:36:26;;;;;;;47.70;22.37;;;1.80;99.90;;;;;;5014741;28;20169;-72
2022/12/10 00:38:53;;;;;;;48.97;22.07;;;1.90;99.90;;;;;;5015379;28;20181;-74
2022/12/10 00:41:18;;;;;;;51.83;24.13;;;2.00;99.90;;;;;;5015329;28;20300;-73
2022/12/10 00:43:44;;;;;;;50.33;21.67;;;2.10;99.90;;;;;;5013852;28;20527;-74
2022/12/10 00:46:12;;;;;;;65.63;28.53;;;2.00;99.90;;;;;;5015285;28;20283;-74
2022/12/10 00:48:38;;;;;;;59.37;25.77;;;2.00;99.90;;;;;;5013879;28;20170;-74
2022/12/10 00:51:08;;;;;;;60.70;25.20;;;1.90;99.90;;;;;;5014958;28;20259;-74
2022/12/10 00:53:35;;;;;;;57.87;24.90;;;1.60;99.90;;;;;;5013841;28;20179;-75
2022/12/10 00:56:01;;;;;;;63.30;24.53;;;1.60;99.90;;;;;;5013560;28;20177;-75
2022/12/10 00:58:28;;;;;;;51.67;22.87;;;1.70;99.90;;;;;;5015001;28;20239;-75
2022/12/10 01:00:54;;;;;;;50.23;21.73;;;1.70;99.90;;;;;;5014843;28;20181;-73
2022/12/10 01:03:20;;;;;;;54.70;23.57;;;1.40;99.90;;;;;;5014461;28;20209;-76
2022/12/10 01:05:45;;;;;;;56.53;24.57;;;1.70;99.90;;;;;;5013939;28;20165;-75
2022/12/10 01:08:11;;;;;;;50.07;22.37;;;2.00;99.90;;;;;;5014815;28;20631;-73
2022/12/10 01:10:37;;;;;;;50.27;22.17;;;2.10;99.90;;;;;;5014894;28;20182;-73
2022/12/10 01:13:03;;;;;;;52.50;21.93;;;2.00;99.90;;;;;;5014760;28;20179;-74
2022/12/10 01:15:29;;;;;;;52.13;23.13;;;1.90;99.90;;;;;;5014754;28;20173;-73
2022/12/10 01:17:55;;;;;;;53.97;22.87;;;1.80;99.90;;;;;;5014365;28;20180;-74
2022/12/10 01:20:26;;;;;;;55.13;22.87;;;1.70;99.90;;;;;;5014648;28;20169;-75
2022/12/10 01:22:52;;;;;;;51.43;21.43;;;1.40;99.90;;;;;;5015266;28;20200;-74
2022/12/10 01:25:17;;;;;;;53.03;23.47;;;1.40;99.90;;;;;;5014573;28;20173;-74
2022/12/10 01:27:43;;;;;;;53.93;23.53;;;1.30;99.90;;;;;;5013269;28;20180;-75
2022/12/10 01:30:09;;;;;;;50.53;23.17;;;1.30;99.90;;;;;;5014270;28;20176;-75
2022/12/10 01:32:35;;;;;;;50.30;21.60;;;1.50;99.90;;;;;;5014212;28;20196;-73
2022/12/10 01:35:00;;;;;;;52.30;22.33;;;1.50;99.90;;;;;;5014162;28;20252;-74
2022/12/10 01:37:26;;;;;;;49.70;22.60;;;1.50;99.90;;;;;;5014173;28;20185;-74
2022/12/10 01:39:51;;;;;;;53.17;23.17;;;1.50;99.90;;;;;;5014274;28;20165;-74
2022/12/10 01:42:17;;;;;;;54.00;23.83;;;1.70;99.90;;;;;;5012869;28;20207;-74
2022/12/10 01:44:42;;;;;;;48.73;20.83;;;1.70;99.90;;;;;;5012962;28;20161;-74
2022/12/10 01:47:10;;;;;;;47.60;20.90;;;1.40;99.90;;;;;;5013933;28;20184;-73
2022/12/10 01:49:40;;;;;;;51.67;22.37;;;1.30;99.90;;;;;;5014136;28;20162;-74
2022/12/10 01:52:08;;;;;;;54.90;23.17;;;1.30;99.90;;;;;;5014023;28;20173;-74
2022/12/10 01:54:41;;;;;;;46.17;22.80;;;1.50;99.90;;;;;;5013982;28;20253;-73
2022/12/10 01:57:22;;;;;;;52.07;22.80;;;1.50;99.90;;;;;;5012476;28;20264;-72
2022/12/10 01:59:53;;;;;;;51.00;21.87;;;1.80;99.90;;;;;;5009457;28;20181;-72
2022/12/10 02:02:24;;;;;;;55.17;25.00;;;2.00;99.90;;;;;;5009496;28;20259;-74
2022/12/10 02:04:58;;;;;;;51.27;22.70;;;2.10;99.90;;;;;;5012471;28;20600;-73
2022/12/10 02:07:46;;;;;;;52.93;23.87;;;2.20;99.90;;;;;;5013830;28;20276;-73
2022/12/10 02:10:39;;;;;;;55.47;24.07;;;1.90;99.90;;;;;;5013849;28;20187;-73
2022/12/10 02:13:17;;;;;;;54.70;24.07;;;1.60;99.90;;;;;;5013729;28;20215;-73
2022/12/10 02:15:58;;;;;;;53.80;23.50;;;1.60;99.90;;;;;;5013204;28;20248;-73
2022/12/10 02:18:48;;;;;;;51.00;23.43;;;1.70;99.90;;;;;;5013549;28;20177;-74
2022/12/10 02:21:22;;;;;;;51.17;23.97;;;1.60;99.90;;;;;;5012653;28;20243;-75
2022/12/10 02:23:54;;;;;;;54.20;22.77;;;1.60;99.90;;;;;;5013443;28;20180;-75
2022/12/10 02:26:29;;;;;;;49.13;23.20;;;1.60;99.90;;;;;;5013098;28;20173;-75
2022/12/10 02:29:14;;;;;;;52.87;22.87;;;1.30;99.90;;;;;;5013305;28;20204;-75
2022/12/10 02:31:46;;;;;;;55.90;26.17;;;1.10;99.90;;;;;;5012881;28;20219;-74
2022/12/10 02:34:14;;;;;;;57.03;26.00;;;1.10;99.90;;;;;;5013527;28;20184;-74
2022/12/10 02:36:43;;;;;;;58.47;26.00;;;1.10;99.90;;;;;;5013115;28;20181;-74
2022/12/10 02:39:13;;;;;;;63.30;27.53;;;1.20;99.90;;;;;;5013216;28;20176;-74
2022/12/10 02:41:42;;;;;;;57.93;26.50;;;1.30;99.90;;;;;;5013210;28;20193;-74
2022/12/10 02:44:12;;;;;;;58.23;26.70;;;1.30;99.90;;;;;;5013161;28;20219;-75
2022/12/10 02:46:41;;;;;;;52.57;26.00;;;1.60;99.90;;;;;;5010871;28;20255;-74
2022/12/10 02:49:08;;;;;;;50.10;24.57;;;1.80;99.90;;;;;;5012689;28;20196;-74
2022/12/10 02:51:33;;;;;;;56.03;26.03;;;1.30;99.90;;;;;;5012828;28;20182;-75
2022/12/10 02:54:05;;;;;;;60.60;26.70;;;1.20;99.90;;;;;;5012818;28;20181;-74
2022/12/10 02:56:36;;;;;;;55.60;25.87;;;1.10;99.90;;;;;;5011674;28;20643;-74
2022/12/10 02:59:28;;;;;;;58.30;27.17;;;1.30;99.90;;;;;;5013039;28;20169;-74
2022/12/10 03:02:34;;;;;;;58.57;27.30;;;0.90;99.90;;;;;;5012550;28;20197;-74
2022/12/10 03:05:24;;;;;;;56.20;27.30;;;1.20;99.90;;;;;;5012585;28;20216;-74
2022/12/10 03:08:03;;;;;;;64.40;28.10;;;1.60;99.90;;;;;;5012897;28;20167;-74
2022/12/10 03:10:38;;;;;;;63.03;29.13;;;1.60;99.90;;;;;;5012807;28;20165;-73
2022/12/10 03:13:09;;;;;;;55.10;26.60;;;1.50;99.90;;;;;;5011326;28;20222;-74
2022/12/10 03:15:39;;;;;;;59.50;26.07;;;1.50;99.90;;;;;;5012653;28;20191;-73
2022/12/10 03:18:06;;;;;;;64.63;29.13;;;1.20;99.90;;;;;;5012438;28;20688;-75
2022/12/10 03:20:36;;;;;;;70.20;29.53;;;1.20;99.90;;;;;;5011453;28;20169;-73
2022/12/10 03:23:03;;;;;;;61.37;27.23;;;1.30;99.90;;;;;;5011235;28;20243;-73
2022/12/10 03:25:32;;;;;;;63.53;29.00;;;1.50;99.90;;;;;;5011572;28;20280;-73
2022/12/10 03:27:59;;;;;;;73.33;31.27;;;1.60;99.90;;;;;;5014293;28;20521;-73
2022/12/10 03:30:24;;;;;;;61.73;28.50;;;1.30;99.90;;;;;;5016377;28;20165;-75
2022/12/10 03:32:52;;;;;;;73.37;30.30;;;1.20;99.90;;;;;;5016389;28;20689;-73
2022/12/10 03:35:20;;;;;;;72.43;28.50;;;1.30;99.90;;;;;;5015146;28;20219;-73
2022/12/10 03:37:46;;;;;;;75.23;31.93;;;1.10;99.90;;;;;;5016344;28;20165;-73
2022/12/10 03:40:12;;;;;;;67.70;28.17;;;1.30;99.90;;;;;;5016233;28;20179;-73
2022/12/10 03:42:38;;;;;;;77.50;29.20;;;1.40;99.90;;;;;;5016206;28;20181;-73
2022/12/10 03:45:05;;;;;;;71.03;29.50;;;1.40;99.90;;;;;;5016082;28;20375;-73
2022/12/10 03:47:32;;;;;;;73.60;29.23;;;1.40;99.90;;;;;;5016088;28;20161;-73
2022/12/10 03:49:58;;;;;;;73.93;28.63;;;1.50;99.90;;;;;;5014615;28;20212;-73
2022/12/10 03:52:24;;;;;;;77.57;31.33;;;1.30;99.90;;;;;;5015788;28;20209;-73
2022/12/10 03:54:50;;;;;;;80.13;29.43;;;1.40;99.90;;;;;;5016306;28;20453;-73
2022/12/10 03:57:15;;;;;;;86.27;32.97;;;1.50;99.90;;;;;;5016027;28;20187;-73
2022/12/10 03:59:41;;;;;;;70.10;29.63;;;1.40;99.90;;;;;;5015951;28;20223;-73
2022/12/10 04:02:07;;;;;;;71.30;31.10;;;0.90;99.90;;;;;;5015671;28;20674;-74
2022/12/10 04:04:32;;;;;;;81.30;30.63;;;0.70;99.90;;;;;;5015923;28;20171;-73
2022/12/10 04:06:58;;;;;;;70.93;29.20;;;0.70;99.90;;;;;;5014676;28;20161;-73
2022/12/10 04:09:23;;;;;;;71.43;29.90;;;0.70;99.90;;;;;;5015916;28;20176;-73
2022/12/10 04:11:49;;;;;;;81.40;32.37;;;0.50;99.90;;;;;;5016062;28;20707;-73
2022/12/10 04:17:00;;;;;;;81.70;32.40;;;0.80;99.90;;;;;;5016095;28;20259;-73
2022/12/10 04:19:26;;;;;;;83.30;31.70;;;1.10;99.90;;;;;;5015645;28;20195;-73
2022/12/10 04:27:31;;;;;;;87.97;32.77;;;1.30;99.90;;;;;;5015432;28;20160;-73
2022/12/10 04:29:58;;;;;;;86.07;32.60;;;1.10;99.90;;;;;;5015629;28;20179;-74
2022/12/10 04:32:26;;;;;;;88.07;32.73;;;1.30;99.90;;;;;;5015343;28;20192;-73
2022/12/10 04:34:51;;;;;;;78.00;30.17;;;1.20;99.90;;;;;;5015289;28;20169;-73
2022/12/10 04:37:17;;;;;;;79.13;30.53;;;1.10;99.90;;;;;;5015563;28;20229;-74
2022/12/10 04:39:44;;;;;;;77.43;30.53;;;1.00;99.90;;;;;;5015932;28;20177;-73
2022/12/10 04:42:11;;;;;;;80.97;31.03;;;1.10;99.90;;;;;;5013836;28;20200;-73
2022/12/10 04:44:37;;;;;;;81.80;30.00;;;1.20;99.90;;;;;;5015197;28;20693;-73
2022/12/10 04:47:04;;;;;;;77.90;30.73;;;1.20;99.90;;;;;;5014407;28;20257;-73
2022/12/10 04:49:30;;;;;;;71.30;28.23;;;1.40;99.90;;;;;;5013651;28;20203;-73
2022/12/10 04:51:56;;;;;;;76.20;29.53;;;1.20;99.90;;;;;;5013978;28;20634;-73
2022/12/10 04:54:22;;;;;;;77.67;29.67;;;1.40;99.90;;;;;;5014734;28;20188;-73
2022/12/10 04:56:48;;;;;;;76.67;29.97;;;1.10;99.90;;;;;;5015008;28;20192;-73
2022/12/10 04:59:15;;;;;;;89.97;31.23;;;1.00;99.90;;;;;;5014881;28;20219;-73
2022/12/10 05:01:42;;;;;;;85.63;31.17;;;1.30;99.90;;;;;;5013418;28;20251;-74
2022/12/10 05:04:12;;;;;;;80.77;28.60;;;1.40;99.90;;;;;;5014545;28;20626;-74
2022/12/10 05:06:38;;;;;;;81.73;31.13;;;1.20;99.90;;;;;;5014369;28;20172;-74
2022/12/10 05:09:05;;;;;;;81.40;30.80;;;1.10;99.90;;;;;;5013416;28;20564;-72
2022/12/10 05:11:32;;;;;;;82.07;30.80;;;1.20;99.90;;;;;;5014579;28;20175;-72
2022/12/10 05:13:58;;;;;;;87.13;31.73;;;1.00;99.90;;;;;;5013175;28;20169;-75
2022/12/10 05:16:26;;;;;;;98.87;32.37;;;1.00;99.90;;;;;;5014723;28;20235;-75
2022/12/10 05:18:53;;;;;;;82.37;30.30;;;1.20;99.90;;;;;;5014501;28;20179;-73
2022/12/10 05:21:20;;;;;;;86.87;30.47;;;1.40;99.90;;;;;;5012891;28;20248;-73
2022/12/10 05:23:48;;;;;;;93.07;32.53;;;1.40;99.90;;;;;;5013214;28;20172;-73
2022/12/10 05:26:24;;;;;;;90.90;32.53;;;1.40;99.90;;;;;;5012628;28;20173;-73
2022/12/10 05:28:53;;;;;;;93.57;32.57;;;1.40;99.90;;;;;;5013289;28;20633;-72
2022/12/10 05:31:21;;;;;;;86.90;30.73;;;1.50;99.90;;;;;;5013826;28;20665;-72
2022/12/10 05:33:49;;;;;;;93.83;32.10;;;1.70;99.90;;;;;;5014498;28;20166;-75
2022/12/10 05:36:17;;;;;;;82.33;30.10;;;1.70;99.90;;;;;;5014238;28;20177;-73
2022/12/10 05:38:43;;;;;;;93.43;30.43;;;1.70;99.90;;;;;;5014279;28;20177;-73
2022/12/10 05:41:13;;;;;;;87.40;28.70;;;1.70;99.90;;;;;;5013462;28;20172;-73
2022/12/10 05:43:40;;;;;;;89.17;31.30;;;1.60;99.90;;;;;;5013855;28;20185;-72
2022/12/10 05:46:10;;;;;;;93.97;32.20;;;1.40;99.90;;;;;;5013975;28;20165;-73
2022/12/10 05:48:36;;;;;;;90.03;31.40;;;1.40;99.90;;;;;;5014264;28;20161;-73
2022/12/10 05:51:11;;;;;;;95.70;31.80;;;1.60;99.90;;;;;;5013217;28;20173;-73
2022/12/10 05:53:38;;;;;;;84.40;30.50;;;1.80;99.90;;;;;;5012659;28;20176;-72
2022/12/10 05:56:07;;;;;;;86.67;30.80;;;1.90;99.90;;;;;;5013668;28;20787;-72
2022/12/10 05:58:33;;;;;;;78.63;27.37;;;1.90;99.90;;;;;;5012749;28;20180;-73
2022/12/10 06:01:00;;;;;;;74.97;26.57;;;1.70;99.90;;;;;;5013816;28;20190;-75
2022/12/10 06:03:27;;;;;;;79.90;26.00;;;1.50;99.90;;;;;;5014065;28;20192;-72
2022/12/10 06:05:53;;;;;;;91.63;27.70;;;1.40;99.90;;;;;;5012625;28;20204;-73
2022/12/10 06:08:19;;;;;;;79.67;26.47;;;1.30;99.90;;;;;;5013893;28;20631;-73
2022/12/10 06:10:45;;;;;;;81.17;28.40;;;1.20;99.90;;;;;;5013399;28;20176;-73
2022/12/10 06:13:11;;;;;;;78.53;26.47;;;1.30;99.90;;;;;;5013810;28;20240;-73
2022/12/10 06:15:39;;;;;;;74.67;26.07;;;1.10;99.90;;;;;;5013259;28;20268;-73
2022/12/10 06:18:05;;;;;;;91.90;27.77;;;1.00;99.90;;;;;;5013677;28;20212;-73
2022/12/10 06:20:32;;;;;;;78.80;25.90;;;1.10;99.90;;;;;;5013687;28;20199;-73
2022/12/10 06:22:59;;;;;;;80.40;26.50;;;1.20;99.90;;;;;;5013749;28;20283;-73
2022/12/10 06:25:25;;;;;;;79.87;26.90;;;1.20;99.90;;;;;;5013176;28;20654;-73
2022/12/10 06:27:51;;;;;;;116.03;30.47;;;1.30;99.90;;;;;;5013077;28;20670;-73
2022/12/10 06:30:17;;;;;;;83.70;26.60;;;1.20;99.90;;;;;;5012048;28;20208;-71
2022/12/10 06:32:42;;;;;;;85.47;27.13;;;1.30;99.90;;;;;;5013242;28;20610;-71
2022/12/10 06:35:09;;;;;;;88.30;27.70;;;1.30;99.90;;;;;;5012194;28;20629;-70
2022/12/10 06:37:35;;;;;;;94.10;30.33;;;1.30;99.90;;;;;;5012986;28;20169;-70
2022/12/10 06:40:01;;;;;;;111.17;44.77;;;1.40;99.90;;;;;;5012981;28;20179;-71
2022/12/10 06:42:26;;;;;;;84.93;27.83;;;1.60;99.90;;;;;;5012660;28;20707;-71
2022/12/10 06:44:52;;;;;;;84.13;27.97;;;1.20;99.90;;;;;;5011843;28;20175;-71
2022/12/10 06:47:17;;;;;;;88.60;27.63;;;1.00;99.90;;;;;;5012839;28;20204;-71
2022/12/10 06:49:43;;;;;;;84.23;28.57;;;1.00;99.90;;;;;;5012959;28;20180;-71
2022/12/10 06:52:08;;;;;;;80.73;27.23;;;1.00;99.90;;;;;;5012916;28;20219;-71
2022/12/10 06:54:34;;;;;;;78.93;26.87;;;1.20;99.90;;;;;;5012516;28;20181;-70
2022/12/10 06:57:00;;;;;;;82.57;26.90;;;1.10;99.90;;;;;;5012831;28;20263;-71
2022/12/10 06:59:26;;;;;;;84.43;26.60;;;1.30;99.90;;;;;;5011589;28;20184;-70
2022/12/10 07:01:52;;;;;;;91.80;29.27;;;1.40;99.90;;;;;;5011743;28;20196;-70
2022/12/10 07:04:18;;;;;;;87.90;27.30;;;1.40;99.90;;;;;;5012020;28;20179;-73
2022/12/10 07:06:43;;;;;;;79.60;26.57;;;1.50;99.90;;;;;;5012622;28;20167;-70
2022/12/10 07:09:10;;;;;;;93.50;31.50;;;1.50;99.90;;;;;;5012524;28;20169;-72
2022/12/10 07:11:36;;;;;;;81.23;28.03;;;1.50;99.90;;;;;;5012079;28;20189;-71
2022/12/10 07:14:02;;;;;;;98.43;27.67;;;1.40;99.90;;;;;;5012770;28;20259;-71
2022/12/10 07:16:30;;;;;;;98.53;30.67;;;1.40;99.90;;;;;;5012486;28;20222;-72
2022/12/10 07:18:58;;;;;;;87.87;28.87;;;1.40;99.90;;;;;;5012820;28;20280;-71
2022/12/10 07:21:34;;;;;;;90.10;28.03;;;1.20;99.90;;;;;;5010878;28;20186;-71
2022/12/10 07:24:04;;;;;;;84.00;28.83;;;0.90;99.90;;;;;;5012357;28;20172;-71
2022/12/10 07:26:34;;;;;;;72.80;25.83;;;0.80;99.90;;;;;;5012274;28;20259;-71
2022/12/10 07:29:00;;;;;;;90.70;27.83;;;0.90;99.90;;;;;;5011447;28;20169;-71
2022/12/10 07:31:27;;;;;;;71.57;24.57;;;0.70;99.90;;;;;;5011788;28;20642;-73
2022/12/10 07:33:56;;;;;;;68.40;24.47;;;0.40;99.90;;;;;;5012618;28;20172;-71
2022/12/10 07:36:22;;;;;;;76.50;27.53;;;0.20;99.90;;;;;;5011226;28;20211;-70
2022/12/10 07:38:48;;;;;;;82.60;27.37;;;0.40;99.90;;;;;;5012405;28;20659;-71
2022/12/10 07:41:14;;;;;;;85.57;27.70;;;0.60;99.90;;;;;;5012203;28;20261;-73
2022/12/10 07:43:41;;;;;;;75.10;27.83;;;0.70;99.90;;;;;;5010954;28;20271;-71
2022/12/10 07:46:12;;;;;;;87.47;27.17;;;0.70;99.90;;;;;;5011249;28;20165;-71
2022/12/10 07:48:44;;;;;;;75.43;27.70;;;0.70;99.90;;;;;;5012132;28;20173;-71
2022/12/10 07:51:10;;;;;;;76.47;22.37;;;0.80;99.90;;;;;;5012486;28;20224;-71
2022/12/10 07:53:35;;;;;;;95.90;26.43;;;0.50;99.90;;;;;;5011279;28;20221;-71
2022/12/10 07:56:02;;;;;;;108.07;41.47;;;0.60;99.90;;;;;;5012394;28;20256;-74
2022/12/10 07:58:28;;;;;;;93.20;29.10;;;0.60;99.90;;;;;;5012418;28;20170;-74
2022/12/10 08:00:53;;;;;;;81.63;26.40;;;0.50;99.90;;;;;;5010756;28;20613;-74
2022/12/10 08:03:19;;;;;;;89.07;33.93;;;0.60;99.90;;;;;;5012607;28;20188;-74
2022/12/10 08:05:46;;;;;;;79.43;28.13;;;0.70;99.90;;;;;;5012131;28;20626;-75
2022/12/10 08:08:11;;;;;;;75.27;27.23;;;0.70;99.90;;;;;;5010553;28;20234;-74
2022/12/10 08:10:40;;;;;;;65.10;23.67;;;1.10;99.90;;;;;;5012322;28;20161;-74
2022/12/10 08:13:06;;;;;;;78.50;25.60;;;1.10;99.90;;;;;;5011421;28;20187;-74
2022/12/10 08:15:32;;;;;;;71.97;24.73;;;1.00;99.90;;;;;;5014778;28;20177;-75
2022/12/10 08:18:01;;;;;;;77.47;26.80;;;1.10;99.90;;;;;;5015630;28;20183;-73
2022/12/10 08:20:26;;;;;;;73.07;26.27;;;1.20;99.90;;;;;;5014318;28;20168;-76
2022/12/10 08:22:53;;;;;;;85.13;30.67;;;1.20;99.90;;;;;;5014409;28;20272;-74
2022/12/10 08:25:18;;;;;;;78.97;27.33;;;1.30;99.90;;;;;;5014526;28;20216;-74
2022/12/10 08:27:44;;;;;;;77.20;26.10;;;1.30;99.90;;;;;;5015683;28;20156;-75
2022/12/10 08:30:10;;;;;;;74.40;26.97;;;1.20;99.90;;;;;;5015874;28;20166;-75
2022/12/10 08:32:37;;;;;;;73.63;28.03;;;1.10;99.90;;;;;;5015241;28;20618;-75
2022/12/10 08:35:02;;;;;;;77.77;25.83;;;1.20;99.90;;;;;;5013679;28;20200;-74
2022/12/10 08:37:28;;;;;;;82.67;26.70;;;1.10;99.90;;;;;;5014513;28;20193;-74
2022/12/10 08:39:54;;;;;;;81.80;25.57;;;1.10;99.90;;;;;;5015855;28;20706;-74
2022/12/10 08:42:20;;;;;;;90.13;29.80;;;1.00;99.90;;;;;;5012961;28;20207;-74
2022/12/10 08:44:46;;;;;;;73.33;23.40;;;0.80;99.90;;;;;;5010570;28;20662;-74
2022/12/10 08:47:11;;;;;;;66.93;23.77;;;0.70;99.90;;;;;;5012999;28;20196;-73
2022/12/10 08:49:37;;;;;;;83.33;27.63;;;0.50;99.90;;;;;;5014162;28;20573;-74
2022/12/10 08:52:03;;;;;;;72.27;24.73;;;0.60;99.90;;;;;;5014869;28;20610;-76
2022/12/10 08:54:29;;;;;;;64.50;23.57;;;0.70;99.90;;;;;;5013684;28;20656;-73
2022/12/10 08:56:54;;;;;;;67.27;24.17;;;0.90;99.90;;;;;;5012998;28;20173;-73
2022/12/10 08:59:20;;;;;;;72.57;22.73;;;0.80;99.90;;;;;;5013787;28;20652;-73
2022/12/10 09:01:46;;;;;;;63.13;23.20;;;0.80;99.90;;;;;;5014919;28;20199;-75
2022/12/10 09:04:12;;;;;;;62.03;23.90;;;0.90;99.90;;;;;;5014666;28;20248;-75
2022/12/10 09:06:41;;;;;;;60.33;22.73;;;0.90;99.90;;;;;;5015114;28;20533;-75
2022/12/10 09:09:07;;;;;;;58.00;22.67;;;1.10;99.90;;;;;;5014616;28;20165;-73
2022/12/10 09:11:34;;;;;;;77.40;29.63;;;1.20;99.90;;;;;;5013409;28;20636;-73
2022/12/10 09:14:00;;;;;;;85.50;30.40;;;1.50;99.90;;;;;;5013430;28;20488;-73
2022/12/10 09:16:32;;;;;;;60.80;20.73;;;1.50;99.90;;;;;;5015021;28;20168;-75
2022/12/10 09:18:58;;;;;;;67.90;23.53;;;1.10;99.90;;;;;;5014618;28;20152;-75
2022/12/10 09:21:24;;;;;;;61.57;25.77;;;0.90;99.90;;;;;;5014743;28;20160;-74
2022/12/10 09:23:51;;;;;;;59.93;21.10;;;0.90;99.90;;;;;;5015092;28;20232;-74
2022/12/10 09:26:17;;;;;;;56.40;21.93;;;1.10;99.90;;;;;;5013826;28;20162;-78
2022/12/10 09:28:44;;;;;;;61.03;23.10;;;1.10;99.90;;;;;;5013339;28;20165;-77
2022/12/10 09:31:11;;;;;;;63.03;22.87;;;1.20;99.90;;;;;;5016109;28;20215;-75
2022/12/10 09:33:37;;;;;;;70.67;27.83;;;1.40;99.90;;;;;;5013238;28;20180;-75
2022/12/10 09:36:06;;;;;;;70.93;25.97;;;1.40;99.90;;;;;;5014689;28;20228;-74
2022/12/10 09:38:35;;;;;;;65.50;25.50;;;1.60;99.90;;;;;;5013256;28;20176;-75
2022/12/10 09:41:27;;;;;;;76.67;26.60;;;1.90;99.90;;;;;;5013230;28;20171;-74
2022/12/10 09:44:19;;;;;;;81.73;31.70;;;2.00;99.90;;;;;;5014221;28;20239;-74
2022/12/10 09:46:52;;;;;;;62.43;23.60;;;2.00;99.90;;;;;;5012996;28;20234;-74
2022/12/10 09:49:36;;;;;;;66.40;24.23;;;1.80;99.90;;;;;;5013070;28;20184;-74
2022/12/10 09:52:06;;;;;;;64.67;22.83;;;1.70;99.90;;;;;;5012721;28;20181;-74
2022/12/10 09:54:37;;;;;;;62.30;22.10;;;1.80;99.90;;;;;;5013965;28;20177;-75
2022/12/10 09:57:06;;;;;;;65.33;24.70;;;1.70;99.90;;;;;;5012503;28;20177;-74
2022/12/10 09:59:36;;;;;;;75.40;28.13;;;1.70;99.90;;;;;;5012829;28;20180;-74
2022/12/10 10:02:19;;;;;;;75.67;25.83;;;1.80;99.90;;;;;;5013631;28;20204;-73
2022/12/10 10:04:44;;;;;;;75.37;25.10;;;1.70;99.90;;;;;;5013957;28;20672;-74
2022/12/10 10:07:21;;;;;;;68.83;25.47;;;1.70;99.90;;;;;;5013926;28;20166;-74
2022/12/10 10:09:49;;;;;;;71.73;24.90;;;1.40;99.90;;;;;;5012392;28;20204;-74
2022/12/10 10:12:15;;;;;;;69.90;24.53;;;1.10;99.90;;;;;;5013717;28;20243;-75
2022/12/10 10:14:43;;;;;;;76.23;26.43;;;1.40;99.90;;;;;;5013617;28;20191;-75
2022/12/10 10:17:35;;;;;;;75.93;26.90;;;1.70;99.90;;;;;;5013754;28;20685;-75
2022/12/10 10:20:04;;;;;;;66.57;25.67;;;1.80;99.90;;;;;;5008390;28;20181;-74
2022/12/10 10:22:30;;;;;;;69.80;25.70;;;1.20;99.90;;;;;;5013385;28;20256;-74
2022/12/10 10:24:56;;;;;;;71.20;26.93;;;1.10;99.90;;;;;;5011981;28;20537;-74
2022/12/10 10:27:26;;;;;;;68.40;24.60;;;1.30;99.90;;;;;;5012992;28;20165;-74
2022/12/10 10:29:56;;;;;;;69.50;24.13;;;1.50;99.90;;;;;;5013847;28;20240;-76
2022/12/10 10:32:24;;;;;;;63.43;27.07;;;1.90;99.90;;;;;;5013132;28;20185;-74
2022/12/10 10:34:55;;;;;;;68.33;25.13;;;1.90;99.90;;;;;;5013601;28;20197;-74
2022/12/10 10:37:40;;;;;;;69.53;26.73;;;1.90;99.90;;;;;;5011951;28;20173;-75
2022/12/10 10:40:30;;;;;;;105.87;37.63;;;1.80;99.90;;;;;;5013624;28;20196;-75
2022/12/10 10:42:58;;;;;;;84.73;33.33;;;1.70;99.90;;;;;;5013281;28;20201;-74
2022/12/10 10:45:35;;;;;;;68.13;26.20;;;1.60;99.90;;;;;;5013605;28;20161;-76
2022/12/10 10:48:22;;;;;;;66.83;23.67;;;1.90;99.90;;;;;;5013396;28;20164;-74
2022/12/10 10:50:55;;;;;;;62.30;22.83;;;2.30;99.90;;;;;;5011821;28;20201;-74
2022/12/10 10:53:38;;;;;;;67.00;24.43;;;2.30;99.90;;;;;;5011881;28;20219;-77
2022/12/10 10:56:41;;;;;;;61.57;22.30;;;2.40;99.90;;;;;;5011408;28;20187;-74
2022/12/10 10:59:16;;;;;;;57.63;21.37;;;2.40;99.90;;;;;;5011908;28;20718;-75
2022/12/10 11:01:46;;;;;;;64.37;22.60;;;2.00;99.90;;;;;;5012834;28;20645;-73
2022/12/10 11:04:14;;;;;;;68.50;24.67;;;2.00;99.90;;;;;;5013850;28;20169;-76
2022/12/10 11:06:43;;;;;;;57.13;23.57;;;2.30;99.90;;;;;;5013417;28;20227;-76
2022/12/10 11:09:38;;;;;;;64.77;23.53;;;2.30;99.90;;;;;;5015228;28;20228;-74
2022/12/10 11:12:06;;;;;;;54.93;22.37;;;2.30;99.90;;;;;;5007455;28;20188;-75
2022/12/10 11:14:41;;;;;;;62.03;22.70;;;2.30;99.90;;;;;;5012718;28;20196;-74
2022/12/10 11:17:10;;;;;;;54.70;21.23;;;2.50;99.90;;;;;;5011810;28;20181;-74
2022/12/10 11:19:42;;;;;;;56.13;22.07;;;2.30;99.90;;;;;;5012751;28;20191;-74
2022/12/10 11:22:24;;;;;;;57.30;20.80;;;2.50;99.90;;;;;;5012730;28;20197;-75
2022/12/10 11:24:50;;;;;;;58.57;23.23;;;2.70;99.90;;;;;;5013017;28;20165;-76
2022/12/10 11:27:28;;;;;;;59.17;21.77;;;2.80;99.90;;;;;;5012746;28;20184;-75
2022/12/10 11:30:06;;;;;;;50.80;21.07;;;3.00;99.90;;;;;;5013159;28;20153;-75
2022/12/10 11:32:46;;;;;;;61.27;21.83;;;2.90;99.90;;;;;;5012529;28;20189;-74
2022/12/10 11:35:33;;;;;;;59.70;22.43;;;3.00;99.90;;;;;;5012950;28;20618;-75
2022/12/10 11:38:25;;;;;;;80.47;28.60;;;3.20;99.90;;;;;;5012165;28;20204;-75
2022/12/10 11:40:57;;;;;;;70.73;26.70;;;3.30;99.90;;;;;;5011842;28;20185;-74
2022/12/10 11:43:29;;;;;;;62.23;22.33;;;2.90;99.90;;;;;;5012109;28;20205;-75
2022/12/10 11:45:55;;;;;;;68.13;23.77;;;3.10;99.90;;;;;;5012559;28;20185;-76
2022/12/10 11:48:34;;;;;;;64.17;25.10;;;3.10;99.90;;;;;;5013349;28;20161;-75
2022/12/10 11:51:06;;;;;;;59.27;22.00;;;2.70;99.90;;;;;;5016563;28;20517;-76
2022/12/10 11:54:09;;;;;;;69.47;25.60;;;2.60;99.90;;;;;;5015334;28;20647;-75
2022/12/10 11:56:40;;;;;;;59.90;23.07;;;2.70;99.90;;;;;;5015539;28;20183;-74
2022/12/10 11:59:28;;;;;;;58.03;22.43;;;2.80;99.90;;;;;;5016155;28;20646;-75
2022/12/10 12:02:21;;;;;;;64.30;21.83;;;3.10;99.90;;;;;;5015547;28;20197;-75
2022/12/10 12:05:24;;;;;;;59.33;22.03;;;3.10;99.90;;;;;;5014663;28;20647;-75
2022/12/10 12:08:35;;;;;;;63.97;23.00;;;2.70;99.90;;;;;;5015779;28;20230;-75
2022/12/10 12:11:06;;;;;;;59.60;21.13;;;2.50;99.90;;;;;;4997212;28;20227;-76
2022/12/10 12:13:40;;;;;;;59.97;22.03;;;2.70;99.90;;;;;;5015149;28;20181;-76
2022/12/10 12:16:18;;;;;;;53.63;20.47;;;2.80;99.90;;;;;;5016058;28;20165;-75
2022/12/10 12:19:45;;;;;;;66.20;24.07;;;2.80;99.90;;;;;;5016098;28;20173;-74
2022/12/10 12:22:38;;;;;;;61.07;22.37;;;2.70;99.90;;;;;;4973860;28;20253;-75
2022/12/10 12:25:16;;;;;;;59.30;22.30;;;2.90;99.90;;;;;;4975461;28;20189;-74
2022/12/10 12:27:48;;;;;;;61.60;21.73;;;2.80;99.90;;;;;;4999278;28;20268;-75
2022/12/10 12:30:19;;;;;;;56.37;22.23;;;2.80;99.90;;;;;;5015361;28;20158;-75
2022/12/10 12:33:10;;;;;;;61.60;21.07;;;3.00;99.90;;;;;;5015659;28;20192;-74
2022/12/10 12:35:47;;;;;;;61.63;21.70;;;3.10;99.90;;;;;;5015606;28;20256;-75
2022/12/10 12:38:43;;;;;;;62.97;21.27;;;2.90;99.90;;;;;;5015202;28;20227;-75
2022/12/10 12:41:17;;;;;;;62.93;21.00;;;2.60;99.90;;;;;;5015489;28;20169;-75
2022/12/10 12:44:02;;;;;;;69.93;21.90;;;2.50;99.90;;;;;;5015360;28;20232;-75
2022/12/10 12:46:43;;;;;;;56.73;20.00;;;2.40;99.90;;;;;;5014238;28;20193;-75
2022/12/10 12:49:20;;;;;;;53.83;20.13;;;2.50;99.90;;;;;;5015167;28;20173;-74
2022/12/10 12:52:25;;;;;;;64.33;22.53;;;2.60;99.90;;;;;;5015426;28;20188;-74
2022/12/10 12:54:53;;;;;;;45.03;17.57;;;2.50;99.90;;;;;;5014456;28;20642;-76
2022/12/10 12:57:29;;;;;;;47.10;19.23;;;2.30;99.90;;;;;;5015169;28;20166;-74
2022/12/10 13:00:29;;;;;;;45.03;18.33;;;2.40;99.90;;;;;;5015078;28;20626;-74
2022/12/10 13:03:08;;;;;;;43.87;17.77;;;2.30;99.90;;;;;;5013718;28;20239;-74